createdAt,value
2019-02-05T00:01:46.657Z,63.47
2019-02-05T00:04:16.677Z,65.30
2019-02-05T00:06:46.417Z,63.80
2019-02-05T00:09:16.127Z,67.90
2019-02-05T00:11:46.020Z,67.17
2019-02-05T00:14:15.787Z,68.77
2019-02-05T00:16:45.413Z,70.20
2019-02-05T00:19:15.257Z,69.97
2019-02-05T00:21:45.180Z,69.60
2019-02-05T00:24:16.205Z,70.97
2019-02-05T00:26:46.054Z,72.50
2019-02-05T00:29:16.219Z,71.87
2019-02-05T00:31:45.909Z,72.77
2019-02-05T00:34:15.417Z,73.67
2019-02-05T00:36:45.073Z,72.50
2019-02-05T00:39:14.798Z,74.47
2019-02-05T00:41:44.621Z,76.27
2019-02-05T00:44:14.619Z,76.80
2019-02-05T00:46:44.393Z,72.70
2019-02-05T00:49:14.205Z,76.83
2019-02-05T00:51:43.948Z,76.20
2019-02-05T00:54:13.472Z,76.33
2019-02-05T00:56:43.289Z,82.33
2019-02-05T00:59:13.437Z,79.17
2019-02-05T01:01:43.285Z,79.20
2019-02-05T01:04:13.218Z,77.37
2019-02-05T01:06:43.017Z,76.40
2019-02-05T01:09:12.659Z,78.77
2019-02-05T01:11:44.077Z,79.87
2019-02-05T01:14:13.752Z,81.00
2019-02-05T01:16:43.564Z,78.30
2019-02-05T01:19:13.523Z,78.67
2019-02-05T01:21:43.540Z,80.40
2019-02-05T01:24:13.362Z,76.27
2019-02-05T01:26:43.582Z,74.60
2019-02-05T01:29:13.165Z,77.23
2019-02-05T01:31:42.839Z,75.50
2019-02-05T01:34:12.486Z,76.43
2019-02-05T01:36:42.414Z,75.23
2019-02-05T01:39:12.353Z,73.20
2019-02-05T01:41:41.985Z,72.87
2019-02-05T01:44:11.801Z,73.70
2019-02-05T01:46:41.641Z,70.90
2019-02-05T01:49:11.333Z,71.80
2019-02-05T01:51:41.141Z,69.20
2019-02-05T01:54:11.317Z,69.00
2019-02-05T01:56:41.136Z,67.90
2019-02-05T01:59:10.980Z,65.23
2019-02-05T02:01:42.120Z,64.20
2019-02-05T02:04:11.870Z,64.23
2019-02-05T02:06:41.694Z,63.93
2019-02-05T02:09:11.627Z,62.90
2019-02-05T02:11:41.348Z,62.30
2019-02-05T02:14:11.134Z,62.33
2019-02-05T02:16:40.907Z,62.10
2019-02-05T02:19:10.828Z,57.77
2019-02-05T02:21:40.580Z,56.73
2019-02-05T02:24:10.288Z,55.93
2019-02-05T02:26:40.035Z,56.90
2019-02-05T02:29:09.735Z,54.70
2019-02-05T02:31:39.501Z,54.17
2019-02-05T02:34:09.201Z,53.90
2019-02-05T02:36:39.032Z,54.53
2019-02-05T02:39:08.963Z,51.00
2019-02-05T02:41:38.594Z,49.83
2019-02-05T02:44:08.405Z,49.30
2019-02-05T02:46:38.250Z,47.77
2019-02-05T02:49:08.076Z,48.73
2019-02-05T02:51:38.000Z,46.47
2019-02-05T02:54:07.652Z,45.97
2019-02-05T02:56:37.264Z,45.00
2019-02-05T02:59:07.047Z,44.43
2019-02-05T03:01:36.675Z,43.30
2019-02-05T03:04:06.422Z,42.23
2019-02-05T03:06:36.595Z,41.43
2019-02-05T03:09:10.251Z,41.83
2019-02-05T03:11:39.721Z,40.53
2019-02-05T03:14:09.536Z,40.03
2019-02-05T03:16:38.968Z,38.37
2019-02-05T03:19:08.791Z,40.00
2019-02-05T03:21:38.672Z,38.33
2019-02-05T03:24:08.556Z,38.80
2019-02-05T03:26:39.498Z,37.43
2019-02-05T03:29:09.245Z,36.20
2019-02-05T03:31:39.077Z,36.30
2019-02-05T03:34:08.898Z,37.20
2019-02-05T03:36:38.844Z,36.80
2019-02-05T03:39:08.974Z,36.33
2019-02-05T03:41:38.684Z,35.40
2019-02-05T03:44:08.335Z,35.60
2019-02-05T03:46:38.045Z,35.80
2019-02-05T03:49:07.984Z,34.70
2019-02-05T03:52:05.045Z,35.77
2019-02-05T03:55:24.496Z,34.90
2019-02-05T03:58:32.198Z,33.30
2019-02-05T04:01:44.594Z,33.83
2019-02-05T04:05:03.051Z,29.43
2019-02-05T04:08:09.933Z,20.90
2019-02-05T04:11:16.483Z,18.60
2019-02-05T04:14:35.048Z,18.63
2019-02-05T04:17:41.240Z,19.57
2019-02-05T04:20:53.429Z,17.93
2019-02-05T04:24:01.118Z,16.27
2019-02-05T04:27:14.831Z,17.10
2019-02-05T04:30:43.798Z,17.03
2019-02-05T04:33:53.157Z,16.30
2019-02-05T04:37:17.103Z,16.50
2019-02-05T04:40:19.785Z,18.00
2019-02-05T04:43:38.439Z,17.70
2019-02-05T04:46:52.376Z,17.97
2019-02-05T04:49:49.746Z,17.90
2019-02-05T04:52:32.693Z,17.97
2019-02-05T04:55:39.029Z,17.07
2019-02-05T04:58:45.419Z,21.10
2019-02-05T05:02:07.719Z,20.30
2019-02-05T05:05:11.832Z,19.37
2019-02-05T05:08:19.944Z,18.00
2019-02-05T05:10:49.753Z,16.80
2019-02-05T05:13:19.375Z,17.50
2019-02-05T05:15:49.233Z,17.10
2019-02-05T05:18:19.158Z,16.73
2019-02-05T05:20:48.806Z,18.50
2019-02-05T05:23:18.613Z,17.63
2019-02-05T05:25:48.535Z,16.60
2019-02-05T05:28:18.379Z,17.47
2019-02-05T05:30:48.201Z,17.23
2019-02-05T05:33:18.043Z,16.33
2019-02-05T05:35:47.851Z,16.30
2019-02-05T05:38:17.787Z,15.57
2019-02-05T05:40:48.434Z,15.97
2019-02-05T05:43:18.086Z,16.00
2019-02-05T05:45:47.477Z,16.03
2019-02-05T05:48:17.415Z,16.20
2019-02-05T05:50:47.059Z,16.47
2019-02-05T05:53:16.878Z,14.33
2019-02-05T05:55:46.913Z,15.97
2019-02-05T05:58:22.647Z,15.40
2019-02-05T06:00:48.248Z,14.60
2019-02-05T06:03:18.032Z,13.53
2019-02-05T06:05:47.752Z,15.40
2019-02-05T06:08:17.694Z,16.07
2019-02-05T06:10:47.498Z,14.57
2019-02-05T06:13:17.257Z,14.13
2019-02-05T06:15:46.761Z,14.17
2019-02-05T06:18:16.796Z,14.10
2019-02-05T06:20:46.762Z,13.83
2019-02-05T06:23:16.602Z,13.73
2019-02-05T06:25:46.395Z,13.60
2019-02-05T06:28:16.112Z,13.67
2019-02-05T06:30:45.857Z,14.17
2019-02-05T06:33:15.883Z,12.93
2019-02-05T06:35:45.697Z,12.53
2019-02-05T06:38:15.451Z,13.97
2019-02-05T06:40:45.253Z,13.73
2019-02-05T06:43:14.985Z,12.70
2019-02-05T06:45:44.765Z,13.57
2019-02-05T06:48:14.657Z,13.70
2019-02-05T06:50:44.379Z,12.40
2019-02-05T06:53:14.032Z,13.07
2019-02-05T06:55:43.827Z,12.63
2019-02-05T06:58:13.764Z,13.67
2019-02-05T07:00:43.477Z,12.97
2019-02-05T07:03:13.254Z,12.70
2019-02-05T07:05:43.049Z,13.50
2019-02-05T07:08:12.836Z,12.63
2019-02-05T07:10:42.607Z,13.03
2019-02-05T07:13:12.524Z,11.93
2019-02-05T07:15:42.273Z,12.60
2019-02-05T07:18:12.077Z,13.73
2019-02-05T07:20:41.903Z,12.80
2019-02-05T07:23:11.890Z,13.40
2019-02-05T07:25:41.614Z,12.50
2019-02-05T07:28:11.466Z,13.27
2019-02-05T07:30:41.037Z,12.90
2019-02-05T07:33:10.985Z,13.00
2019-02-05T07:35:41.103Z,13.53
2019-02-05T07:38:11.069Z,12.90
2019-02-05T07:40:40.976Z,13.10
2019-02-05T07:43:10.962Z,13.57
2019-02-05T07:45:40.718Z,12.77
2019-02-05T07:48:12.053Z,12.70
2019-02-05T07:50:41.918Z,13.40
2019-02-05T07:53:11.643Z,11.80
2019-02-05T07:55:41.476Z,12.60
2019-02-05T07:58:11.312Z,13.87
2019-02-05T08:00:41.137Z,12.83
2019-02-05T08:03:11.168Z,12.50
2019-02-05T08:05:40.727Z,13.10
2019-02-05T08:08:10.924Z,11.97
2019-02-05T08:10:40.757Z,12.70
2019-02-05T08:13:10.586Z,13.10
2019-02-05T08:15:40.412Z,13.00
2019-02-05T08:18:10.359Z,14.40
2019-02-05T08:20:40.282Z,13.30
2019-02-05T08:23:09.913Z,14.70
2019-02-05T08:25:39.749Z,13.60
2019-02-05T08:28:09.587Z,13.07
2019-02-05T08:30:42.035Z,12.83
2019-02-05T08:33:11.783Z,14.13
2019-02-05T08:35:41.521Z,13.60
2019-02-05T08:38:11.322Z,14.10
2019-02-05T08:40:40.867Z,13.93
2019-02-05T08:43:10.809Z,12.77
2019-02-05T08:45:40.795Z,13.07
2019-02-05T08:48:11.401Z,13.47
2019-02-05T08:50:41.291Z,14.70
2019-02-05T08:53:11.131Z,14.40
2019-02-05T08:55:41.241Z,13.63
2019-02-05T08:58:13.077Z,13.43
2019-02-05T09:00:42.979Z,13.90
2019-02-05T09:03:13.029Z,13.90
2019-02-05T09:05:42.753Z,14.20
2019-02-05T09:08:12.638Z,13.50
2019-02-05T09:10:42.193Z,13.17
2019-02-05T09:13:12.435Z,13.80
2019-02-05T09:15:42.167Z,13.60
2019-02-05T09:18:12.081Z,13.20
2019-02-05T09:20:41.927Z,13.60
2019-02-05T09:23:14.230Z,13.17
2019-02-05T09:25:43.243Z,13.77
2019-02-05T09:28:14.664Z,14.17
2019-02-05T09:46:22.163Z,14.37
2019-02-05T09:48:51.963Z,13.30
2019-02-05T09:51:21.894Z,14.43
2019-02-05T09:53:51.533Z,13.93
2019-02-05T09:56:21.474Z,14.20
2019-02-05T09:58:51.303Z,12.80
2019-02-05T10:01:21.212Z,13.73
2019-02-05T10:03:51.160Z,13.03
2019-02-05T10:06:22.613Z,13.23
2019-02-05T10:08:52.339Z,14.53
2019-02-05T10:11:21.983Z,12.57
2019-02-05T10:13:51.899Z,12.70
2019-02-05T10:16:21.842Z,13.43
2019-02-05T10:18:51.657Z,13.20
2019-02-05T10:21:21.618Z,12.77
2019-02-05T10:23:51.608Z,12.30
2019-02-05T10:26:21.367Z,13.00
2019-02-05T10:28:51.172Z,11.83
2019-02-05T10:31:21.017Z,13.60
2019-02-05T10:33:55.188Z,11.33
2019-02-05T10:36:22.415Z,11.23
2019-02-05T10:38:52.457Z,11.00
2019-02-05T10:41:22.170Z,11.97
2019-02-05T10:43:52.162Z,11.77
2019-02-05T10:46:21.735Z,12.93
2019-02-05T10:48:51.653Z,11.70
2019-02-05T10:51:21.407Z,12.10
2019-02-05T10:53:51.420Z,11.50
2019-02-05T10:56:21.367Z,11.87
2019-02-05T10:58:51.172Z,11.63
2019-02-05T11:01:20.907Z,12.93
2019-02-05T11:03:50.738Z,11.80
2019-02-05T11:06:20.479Z,11.27
2019-02-05T11:08:50.277Z,10.90
2019-02-05T11:11:20.186Z,10.60
2019-02-05T11:13:50.056Z,11.40
2019-02-05T11:16:19.988Z,12.43
2019-02-05T11:18:49.615Z,12.30
2019-02-05T11:21:19.337Z,11.83
2019-02-05T11:23:48.873Z,11.27
2019-02-05T11:26:18.905Z,11.30
2019-02-05T11:28:48.723Z,10.80
2019-02-05T11:31:18.651Z,11.67
2019-02-05T11:33:49.559Z,11.17
2019-02-05T11:36:19.354Z,11.23
2019-02-05T11:38:49.194Z,11.60
2019-02-05T11:41:19.096Z,11.63
2019-02-05T11:43:49.049Z,12.70
2019-02-05T11:46:18.952Z,12.37
2019-02-05T11:48:48.803Z,12.13
2019-02-05T11:51:18.621Z,11.70
2019-02-05T11:53:48.573Z,12.00
2019-02-05T11:56:18.385Z,12.03
2019-02-05T11:58:48.107Z,10.83
2019-02-05T12:01:38.593Z,11.70
2019-02-05T12:04:00.261Z,11.07
2019-02-05T12:06:30.141Z,12.17
2019-02-05T12:08:59.809Z,11.00
2019-02-05T12:11:29.951Z,11.00
2019-02-05T12:13:59.879Z,11.40
2019-02-05T12:16:29.830Z,12.03
2019-02-05T12:18:59.763Z,11.80
2019-02-05T12:21:29.683Z,11.87
2019-02-05T12:23:59.613Z,10.87
2019-02-05T12:26:29.655Z,11.17
2019-02-05T12:28:59.496Z,11.90
2019-02-05T12:31:29.406Z,10.70
2019-02-05T12:33:59.208Z,10.47
2019-02-05T12:36:29.183Z,11.57
2019-02-05T12:38:58.882Z,10.77
2019-02-05T12:41:28.738Z,10.63
2019-02-05T12:43:59.735Z,10.63
2019-02-05T12:56:52.568Z,10.23
2019-02-05T12:59:22.220Z,12.07
2019-02-05T13:01:52.156Z,10.50
2019-02-05T13:04:21.889Z,10.80
2019-02-05T13:06:52.004Z,10.77
2019-02-05T13:09:22.203Z,10.70
2019-02-05T13:11:52.072Z,10.50
2019-02-05T13:14:21.919Z,10.37
2019-02-05T13:16:51.751Z,10.90
2019-02-05T13:19:21.560Z,10.27
2019-02-05T13:21:51.405Z,10.20
2019-02-05T13:24:21.342Z,9.90
2019-02-05T13:26:51.050Z,10.23
2019-02-05T13:29:20.981Z,10.13
2019-02-05T13:31:50.829Z,10.63
2019-02-05T13:34:20.736Z,9.87
2019-02-05T13:36:50.751Z,10.60
2019-02-05T13:39:20.292Z,9.37
2019-02-05T13:41:50.034Z,10.07
2019-02-05T13:44:19.843Z,9.67
2019-02-05T13:46:49.793Z,10.47
2019-02-05T13:49:19.719Z,11.00
2019-02-05T13:51:49.683Z,9.50
2019-02-05T13:54:19.486Z,9.70
2019-02-05T13:56:49.318Z,9.80
2019-02-05T13:59:19.110Z,9.93
2019-02-05T14:01:48.796Z,10.30
2019-02-05T14:04:18.933Z,8.60
2019-02-05T14:06:50.614Z,9.90
2019-02-05T14:09:20.505Z,9.47
2019-02-05T14:11:51.161Z,9.97
2019-02-05T14:14:20.919Z,10.33
2019-02-05T14:16:50.717Z,10.00
2019-02-05T14:19:20.419Z,9.00
2019-02-05T14:21:50.375Z,9.07
2019-02-05T14:24:20.188Z,9.60
2019-02-05T14:26:50.012Z,9.17
2019-02-05T14:29:19.748Z,9.20
2019-02-05T14:31:49.395Z,9.30
2019-02-05T14:34:20.421Z,9.17
2019-02-05T14:36:50.056Z,9.67
2019-02-05T14:39:19.884Z,8.70
2019-02-05T14:41:49.821Z,9.07
2019-02-05T14:44:19.762Z,9.17
2019-02-05T14:46:50.010Z,8.17
2019-02-05T14:49:19.707Z,9.70
2019-02-05T14:51:49.350Z,9.47
2019-02-05T14:54:19.256Z,9.57
2019-02-05T14:56:48.893Z,9.60
2019-02-05T14:59:18.626Z,9.30
2019-02-05T15:01:48.677Z,8.77
2019-02-05T15:04:18.489Z,8.77
2019-02-05T15:06:48.232Z,8.77
2019-02-05T15:09:17.849Z,9.23
2019-02-05T15:11:47.564Z,8.80
2019-02-05T15:14:17.397Z,9.37
2019-02-05T15:16:47.204Z,9.20
2019-02-05T15:19:16.961Z,8.73
2019-02-05T15:21:46.879Z,9.70
2019-02-05T15:24:16.831Z,9.30
2019-02-05T15:26:46.662Z,8.90
2019-02-05T15:29:16.712Z,9.37
2019-02-05T15:31:54.102Z,8.13
2019-02-05T15:34:23.829Z,8.70
2019-02-05T15:36:53.546Z,9.03
2019-02-05T15:39:23.061Z,8.77
2019-02-05T15:41:52.789Z,8.30
2019-02-05T15:44:22.595Z,8.97
2019-02-05T15:46:52.167Z,8.90
2019-02-05T15:49:21.874Z,9.03
2019-02-05T15:51:51.928Z,12.63
2019-02-05T15:54:21.740Z,13.97
2019-02-05T15:56:51.981Z,37.43
2019-02-05T15:59:21.610Z,54.83
2019-02-05T16:01:51.519Z,61.77
2019-02-05T16:04:21.265Z,67.23
2019-02-05T16:06:51.186Z,70.90
2019-02-05T16:09:21.128Z,74.20
2019-02-05T16:11:51.253Z,75.60
2019-02-05T16:14:21.076Z,79.27
2019-02-05T16:16:50.698Z,77.90
2019-02-05T16:19:20.626Z,80.20
2019-02-05T16:21:50.370Z,84.10
2019-02-05T16:24:20.296Z,85.07
2019-02-05T16:26:50.380Z,87.57
2019-02-05T16:29:20.172Z,87.40
2019-02-05T16:31:50.102Z,86.47
2019-02-05T16:34:19.902Z,88.80
2019-02-05T16:36:49.779Z,90.83
2019-02-05T16:39:19.573Z,90.30
2019-02-05T16:41:49.554Z,89.47
2019-02-05T16:44:19.445Z,86.87
2019-02-05T16:46:49.279Z,87.57
2019-02-05T16:49:18.945Z,85.33
2019-02-05T16:51:48.736Z,86.90
2019-02-05T16:54:18.381Z,83.47
2019-02-05T16:56:48.178Z,84.20
2019-02-05T16:59:18.255Z,86.10
2019-02-05T17:01:48.032Z,82.27
2019-02-05T17:04:17.979Z,80.97
2019-02-05T17:06:47.724Z,79.47
2019-02-05T17:09:17.947Z,78.60
2019-02-05T17:11:47.855Z,77.00
2019-02-05T17:14:17.702Z,76.97
2019-02-05T17:16:47.439Z,78.87
2019-02-05T17:19:17.275Z,73.40
2019-02-05T17:21:47.195Z,73.90
2019-02-05T17:24:17.261Z,71.50
2019-02-05T17:26:47.183Z,72.00
2019-02-05T17:29:16.908Z,75.23
2019-02-05T17:31:46.749Z,63.10
2019-02-05T17:34:17.168Z,66.90
2019-02-05T17:36:48.710Z,68.57
2019-02-05T17:39:18.376Z,71.80
2019-02-05T17:41:48.784Z,71.20
2019-02-05T17:44:18.528Z,71.20
2019-02-05T17:46:48.170Z,69.53
2019-02-05T17:49:18.359Z,72.30
2019-02-05T17:51:53.656Z,70.57
2019-02-05T17:54:23.689Z,66.40
2019-02-05T17:56:53.591Z,66.70
2019-02-05T17:59:23.157Z,69.53
2019-02-05T18:01:52.859Z,64.70
2019-02-05T18:04:22.748Z,65.67
2019-02-05T18:06:52.446Z,62.60
2019-02-05T18:09:22.237Z,61.80
2019-02-05T18:11:52.192Z,62.97
2019-02-05T18:14:25.693Z,60.50
2019-02-05T18:16:55.367Z,61.87
2019-02-05T18:19:25.653Z,65.97
2019-02-05T18:21:55.439Z,62.10
2019-02-05T18:24:25.209Z,60.13
2019-02-05T18:26:55.189Z,60.87
2019-02-05T18:29:25.001Z,61.43
2019-02-05T18:31:54.602Z,58.87
2019-02-05T18:34:24.436Z,59.47
2019-02-05T18:36:54.249Z,57.37
2019-02-05T18:39:24.109Z,59.57
2019-02-05T18:41:54.027Z,57.87
2019-02-05T18:44:23.759Z,58.00
2019-02-05T18:46:53.666Z,55.60
2019-02-05T18:49:23.613Z,56.20
2019-02-05T18:51:53.346Z,55.60
2019-02-05T18:54:23.276Z,54.23
2019-02-05T18:56:53.112Z,53.03
2019-02-05T18:59:23.019Z,52.60
2019-02-05T19:01:52.978Z,51.80
2019-02-05T19:04:22.779Z,50.93
2019-02-05T19:06:52.740Z,52.33
2019-02-05T19:09:22.644Z,51.00
2019-02-05T19:11:52.491Z,48.33
2019-02-05T19:14:23.325Z,49.10
2019-02-05T19:16:53.398Z,49.60
2019-02-05T19:19:23.189Z,48.90
2019-02-05T19:21:53.036Z,50.43
2019-02-05T19:24:43.732Z,47.70
2019-02-05T19:27:13.779Z,49.67
2019-02-05T19:29:44.896Z,47.53
2019-02-05T19:32:16.341Z,47.90
2019-02-05T19:34:46.345Z,48.20
2019-02-05T19:37:17.635Z,47.87
2019-02-05T19:39:47.443Z,48.43
2019-02-05T19:42:17.040Z,47.80
2019-02-05T19:44:55.201Z,45.53
2019-02-05T19:47:29.925Z,45.37
2019-02-05T19:50:00.879Z,43.30
2019-02-05T19:52:31.099Z,43.47
2019-02-05T19:55:00.941Z,44.27
2019-02-05T20:00:10.661Z,42.50
2019-02-05T20:03:15.488Z,43.23
2019-02-05T20:06:20.315Z,41.63
2019-02-05T20:09:25.121Z,42.50
2019-02-05T20:12:30.767Z,40.60
2019-02-05T20:15:36.261Z,40.33
2019-02-05T20:18:41.041Z,40.33
2019-02-05T20:21:45.869Z,39.70
2019-02-05T20:24:50.727Z,36.20
2019-02-05T20:27:55.631Z,39.10
2019-02-05T20:31:00.482Z,39.90
2019-02-05T20:34:05.401Z,36.07
2019-02-05T20:37:10.341Z,37.20
2019-02-05T20:40:16.401Z,35.90
2019-02-05T20:43:21.216Z,36.30
2019-02-05T20:46:26.181Z,37.90
2019-02-05T20:49:31.000Z,36.70
2019-02-05T20:52:35.722Z,38.10
2019-02-05T20:55:40.544Z,38.37
2019-02-05T20:58:47.179Z,39.70
2019-02-05T21:01:51.963Z,38.90
2019-02-05T21:04:56.770Z,40.90
2019-02-05T21:08:01.662Z,41.13
2019-02-05T21:11:06.453Z,43.23
2019-02-05T21:14:11.210Z,42.73
2019-02-05T21:17:16.073Z,45.10
2019-02-05T21:20:28.804Z,45.87
2019-02-05T21:23:28.117Z,47.10
2019-02-05T21:26:32.938Z,47.07
2019-02-05T21:29:37.893Z,47.20
2019-02-05T21:32:42.685Z,48.17
2019-02-05T21:35:47.565Z,51.27
2019-02-05T21:38:52.345Z,53.23
2019-02-05T21:41:57.078Z,54.47
2019-02-05T21:45:01.910Z,57.13
2019-02-05T21:48:06.746Z,59.03
2019-02-05T21:51:11.583Z,63.40
2019-02-05T21:54:16.309Z,64.27
2019-02-05T21:57:21.218Z,66.83
2019-02-05T22:00:27.637Z,69.80
2019-02-05T22:03:32.439Z,72.70
2019-02-05T22:06:37.155Z,73.10
2019-02-05T22:09:42.005Z,77.07
2019-02-05T22:12:46.826Z,79.13
2019-02-05T22:15:51.984Z,79.50
2019-02-05T22:18:56.872Z,81.87
2019-02-05T22:22:01.853Z,85.77
2019-02-05T22:25:09.311Z,83.90
2019-02-05T22:28:14.262Z,87.97
2019-02-05T22:31:18.983Z,90.30
2019-02-05T22:34:23.811Z,88.70
2019-02-05T22:37:28.658Z,90.83
2019-02-05T22:40:33.437Z,92.67
2019-02-05T22:43:38.708Z,96.63
2019-02-05T22:46:43.532Z,94.80
2019-02-05T22:49:48.382Z,98.27
2019-02-05T22:52:53.085Z,102.27
2019-02-05T22:55:57.921Z,103.17
2019-02-05T22:59:02.750Z,101.50
2019-02-05T23:02:07.889Z,106.97
2019-02-05T23:05:48.972Z,106.70
2019-02-05T23:08:53.880Z,106.80
2019-02-05T23:12:18.219Z,105.57
2019-02-05T23:15:24.832Z,109.73
2019-02-05T23:18:29.573Z,105.87
2019-02-05T23:21:34.399Z,108.53
2019-02-05T23:24:39.224Z,110.87
2019-02-05T23:27:43.980Z,109.43
2019-02-05T23:30:48.673Z,109.03
